createdAt,value
2023-03-08T00:01:19.615Z,99763.50
2023-03-08T00:03:46.734Z,99764.69
2023-03-08T00:06:15.887Z,99753.97
2023-03-08T00:08:43.233Z,99765.88
2023-03-08T00:11:12.608Z,99762.53
2023-03-08T00:13:40.578Z,99759.44
2023-03-08T00:16:10.417Z,99762.91
2023-03-08T00:18:37.273Z,99767.41
2023-03-08T00:21:15.179Z,99770.25
2023-03-08T00:23:42.999Z,99779.72
2023-03-08T00:26:12.564Z,99779.66
2023-03-08T00:28:40.344Z,99786.38
2023-03-08T00:31:11.096Z,99795.06
2023-03-08T00:33:38.388Z,99797.69
2023-03-08T00:36:13.647Z,99788.53
2023-03-08T00:38:40.400Z,99799.16
2023-03-08T00:41:07.354Z,99796.50
2023-03-08T00:43:34.354Z,99795.56
2023-03-08T00:46:01.357Z,99796.53
2023-03-08T00:48:28.259Z,99791.25
2023-03-08T00:50:55.040Z,99790.72
2023-03-08T00:53:21.923Z,99792.84
2023-03-08T00:55:57.831Z,99789.44
2023-03-08T00:58:26.843Z,99781.09
2023-03-08T01:00:54.071Z,99786.03
2023-03-08T01:03:24.790Z,99794.59
2023-03-08T01:05:54.303Z,99799.03
2023-03-08T01:08:22.333Z,99803.53
2023-03-08T01:10:54.747Z,99802.00
2023-03-08T01:13:21.621Z,99803.91
2023-03-08T01:15:48.443Z,99803.34
2023-03-08T01:18:15.234Z,99797.91
2023-03-08T01:20:42.247Z,99802.53
2023-03-08T01:23:09.582Z,99805.25
2023-03-08T01:25:36.755Z,99800.16
2023-03-08T01:28:03.587Z,99800.94
2023-03-08T01:30:30.396Z,99811.91
2023-03-08T01:32:57.133Z,99825.88
2023-03-08T01:35:23.812Z,99824.84
2023-03-08T01:37:53.633Z,99816.09
2023-03-08T01:40:21.259Z,99815.34
2023-03-08T01:42:51.911Z,99799.53
2023-03-08T01:45:56.505Z,99785.19
2023-03-08T01:48:30.491Z,99780.44
2023-03-08T01:50:58.406Z,99778.19
2023-03-08T01:53:25.875Z,99779.91
2023-03-08T01:55:55.603Z,99764.69
2023-03-08T01:58:22.823Z,99760.81
2023-03-08T02:00:49.581Z,99760.06
2023-03-08T02:03:16.460Z,99752.88
2023-03-08T02:05:44.483Z,99754.06
2023-03-08T02:08:11.264Z,99742.03
2023-03-08T02:10:38.937Z,99744.81
2023-03-08T02:13:07.349Z,99736.09
2023-03-08T02:15:34.425Z,99739.44
2023-03-08T02:18:01.153Z,99739.97
2023-03-08T02:20:32.573Z,99742.50
2023-03-08T02:23:17.310Z,99737.16
2023-03-08T02:26:04.959Z,99732.81
2023-03-08T02:28:32.961Z,99731.88
2023-03-08T02:30:59.795Z,99730.25
2023-03-08T02:33:26.819Z,99738.75
2023-03-08T02:35:54.091Z,99739.56
2023-03-08T02:38:22.043Z,99736.78
2023-03-08T02:40:51.625Z,99733.44
2023-03-08T02:43:18.920Z,99733.44
2023-03-08T02:45:46.146Z,99730.03
2023-03-08T02:48:13.707Z,99733.72
2023-03-08T02:50:40.701Z,99730.31
2023-03-08T02:53:07.796Z,99731.88
2023-03-08T02:55:37.859Z,99721.19
2023-03-08T02:58:06.086Z,99720.25
2023-03-08T03:00:34.347Z,99715.56
2023-03-08T03:03:01.035Z,99709.44
2023-03-08T03:05:27.767Z,99712.09
2023-03-08T03:07:55.453Z,99716.22
2023-03-08T03:10:22.199Z,99710.66
2023-03-08T03:12:48.957Z,99706.81
2023-03-08T03:15:15.735Z,99704.56
2023-03-08T03:17:42.433Z,99707.84
2023-03-08T03:20:09.908Z,99703.13
2023-03-08T03:22:37.122Z,99696.19
2023-03-08T03:25:05.165Z,99689.53
2023-03-08T03:27:31.964Z,99681.78
2023-03-08T03:29:58.765Z,99691.03
2023-03-08T03:32:25.780Z,99683.81
2023-03-08T03:34:52.690Z,99696.13
2023-03-08T03:37:19.339Z,99693.31
2023-03-08T03:39:46.130Z,99692.75
2023-03-08T03:42:12.871Z,99694.94
2023-03-08T03:44:39.564Z,99693.69
2023-03-08T03:47:06.613Z,99695.38
2023-03-08T03:49:33.653Z,99692.75
2023-03-08T03:52:00.355Z,99681.88
2023-03-08T03:54:27.505Z,99694.50
2023-03-08T03:56:58.286Z,99680.66
2023-03-08T03:59:26.779Z,99686.94
2023-03-08T04:01:53.766Z,99673.88
2023-03-08T04:04:20.656Z,99671.50
2023-03-08T04:06:47.735Z,99663.78
2023-03-08T04:09:17.638Z,99660.31
2023-03-08T04:11:44.515Z,99651.25
2023-03-08T04:14:11.606Z,99633.28
2023-03-08T04:16:39.693Z,99615.19
2023-03-08T04:19:12.613Z,99611.81
2023-03-08T04:21:39.608Z,99608.84
2023-03-08T04:24:08.159Z,99619.81
2023-03-08T04:26:36.537Z,99618.41
2023-03-08T04:29:06.132Z,99611.41
2023-03-08T04:31:35.711Z,99610.09
2023-03-08T04:34:03.547Z,99604.97
2023-03-08T04:36:30.726Z,99607.63
2023-03-08T04:38:57.598Z,99617.34
2023-03-08T04:41:24.562Z,99614.16
2023-03-08T04:43:56.368Z,99611.81
2023-03-08T04:46:28.331Z,99604.84
2023-03-08T04:48:55.964Z,99596.91
2023-03-08T04:51:26.812Z,99599.22
2023-03-08T04:53:53.953Z,99597.50
2023-03-08T04:56:21.083Z,99598.72
2023-03-08T04:58:48.302Z,99603.25
2023-03-08T05:01:20.617Z,99596.25
2023-03-08T05:03:49.849Z,99597.03
2023-03-08T05:06:17.094Z,99594.47
2023-03-08T05:08:44.382Z,99584.34
2023-03-08T05:11:18.987Z,99580.91
2023-03-08T05:13:46.026Z,99579.03
2023-03-08T05:16:13.189Z,99573.69
2023-03-08T05:18:40.065Z,99576.06
2023-03-08T05:21:10.594Z,99577.38
2023-03-08T05:23:37.322Z,99571.91
2023-03-08T05:26:06.062Z,99568.22
2023-03-08T05:28:34.788Z,99564.59
2023-03-08T05:31:12.297Z,99557.34
2023-03-08T05:33:40.330Z,99557.91
2023-03-08T05:36:07.985Z,99549.50
2023-03-08T05:38:35.099Z,99546.22
2023-03-08T05:41:09.330Z,99550.31
2023-03-08T05:43:36.179Z,99547.41
2023-03-08T05:46:06.590Z,99546.47
2023-03-08T05:48:35.051Z,99530.16
2023-03-08T05:51:09.866Z,99526.78
2023-03-08T05:53:37.183Z,99533.84
2023-03-08T05:56:12.000Z,99530.78
2023-03-08T05:58:40.442Z,99526.00
2023-03-08T06:01:25.585Z,99522.94
2023-03-08T06:03:55.065Z,99531.09
2023-03-08T06:06:23.350Z,99531.78
2023-03-08T06:08:50.403Z,99521.84
2023-03-08T06:11:18.302Z,99519.97
2023-03-08T06:13:44.983Z,99518.44
2023-03-08T06:16:11.888Z,99520.59
2023-03-08T06:18:40.152Z,99523.78
2023-03-08T06:21:15.799Z,99520.63
2023-03-08T06:23:43.089Z,99526.63
2023-03-08T06:26:11.149Z,99520.16
2023-03-08T06:28:40.397Z,99524.50
2023-03-08T06:31:09.168Z,99511.31
2023-03-08T06:33:35.900Z,99515.88
2023-03-08T06:36:12.325Z,99512.81
2023-03-08T06:38:40.651Z,99518.06
2023-03-08T06:41:09.103Z,99511.84
2023-03-08T06:43:36.667Z,99513.28
2023-03-08T06:46:11.749Z,99504.72
2023-03-08T06:48:39.074Z,99494.97
2023-03-08T06:51:06.304Z,99494.22
2023-03-08T06:53:36.223Z,99496.72
2023-03-08T06:56:03.793Z,99495.09
2023-03-08T06:58:31.681Z,99488.38
2023-03-08T07:01:00.580Z,99482.72
2023-03-08T07:03:27.967Z,99481.72
2023-03-08T07:06:00.271Z,99476.91
2023-03-08T07:08:27.240Z,99478.16
2023-03-08T07:10:54.160Z,99481.38
2023-03-08T07:13:23.624Z,99476.38
2023-03-08T07:15:51.722Z,99477.34
2023-03-08T07:18:19.721Z,99476.06
2023-03-08T07:20:51.451Z,99477.78
2023-03-08T07:23:18.161Z,99488.13
2023-03-08T07:25:44.873Z,99478.91
2023-03-08T07:28:11.796Z,99480.34
2023-03-08T07:30:38.764Z,99484.13
2023-03-08T07:33:05.498Z,99483.72
2023-03-08T07:35:32.471Z,99490.63
2023-03-08T07:37:59.216Z,99476.69
2023-03-08T07:40:25.911Z,99486.25
2023-03-08T07:42:52.701Z,99489.81
2023-03-08T07:45:19.624Z,99495.41
2023-03-08T07:47:46.433Z,99492.38
2023-03-08T07:50:13.452Z,99503.50
2023-03-08T07:52:40.071Z,99492.72
2023-03-08T07:55:07.521Z,99513.25
2023-03-08T07:57:34.262Z,99508.00
2023-03-08T08:00:01.017Z,99513.50
2023-03-08T08:02:28.758Z,99516.75
2023-03-08T08:04:56.555Z,99519.75
2023-03-08T08:07:23.293Z,99518.16
2023-03-08T08:09:49.987Z,99519.19
2023-03-08T08:12:16.869Z,99518.91
2023-03-08T08:14:46.338Z,99511.72
2023-03-08T08:17:13.021Z,99511.47
2023-03-08T08:19:40.145Z,99518.88
2023-03-08T08:22:07.538Z,99526.44
2023-03-08T08:24:34.236Z,99524.84
2023-03-08T08:27:00.883Z,99531.28
2023-03-08T08:29:27.581Z,99520.13
2023-03-08T08:31:54.265Z,99532.84
2023-03-08T08:34:21.039Z,99532.56
2023-03-08T08:36:47.759Z,99532.59
2023-03-08T08:39:14.846Z,99542.44
2023-03-08T08:41:41.709Z,99540.72
2023-03-08T08:44:11.764Z,99532.44
2023-03-08T08:46:38.555Z,99537.84
2023-03-08T08:49:06.464Z,99551.75
2023-03-08T08:51:33.243Z,99546.41
2023-03-08T08:53:59.932Z,99556.56
2023-03-08T08:56:28.686Z,99563.00
2023-03-08T08:59:04.852Z,99569.84
2023-03-08T09:01:33.298Z,99570.91
2023-03-08T09:04:00.070Z,99571.81
2023-03-08T09:06:28.068Z,99581.44
2023-03-08T09:08:57.285Z,99577.09
2023-03-08T09:11:25.402Z,99576.38
2023-03-08T09:13:53.353Z,99579.84
2023-03-08T09:16:23.816Z,99588.78
2023-03-08T09:18:51.112Z,99601.91
2023-03-08T09:21:19.557Z,99600.19
2023-03-08T09:23:46.291Z,99615.13
2023-03-08T09:26:13.411Z,99612.25
2023-03-08T09:28:40.255Z,99619.91
2023-03-08T09:31:14.872Z,99619.97
2023-03-08T09:33:51.868Z,99620.41
2023-03-08T09:36:19.548Z,99616.59
2023-03-08T09:38:50.295Z,99598.34
2023-03-08T09:41:21.721Z,99613.66
2023-03-08T09:44:25.367Z,99616.66
2023-03-08T09:46:58.548Z,99632.84
2023-03-08T09:49:30.744Z,99645.81
2023-03-08T09:52:22.444Z,99649.25
2023-03-08T09:54:50.803Z,99656.41
2023-03-08T09:57:23.880Z,99663.31
2023-03-08T09:59:57.186Z,99659.72
2023-03-08T10:02:51.609Z,99658.72
2023-03-08T10:05:35.577Z,99664.13
2023-03-08T10:08:21.651Z,99680.03
2023-03-08T10:11:07.641Z,99673.38
2023-03-08T10:13:49.459Z,99676.66
2023-03-08T10:16:28.647Z,99674.25
2023-03-08T10:19:14.673Z,99673.16
2023-03-08T10:21:44.334Z,99674.38
2023-03-08T10:24:16.892Z,99696.16
2023-03-08T10:26:44.165Z,99708.19
2023-03-08T10:29:13.092Z,99699.84
2023-03-08T10:31:43.443Z,99704.34
2023-03-08T10:34:15.373Z,99692.03
2023-03-08T10:36:51.545Z,99685.25
2023-03-08T10:39:18.410Z,99690.91
2023-03-08T10:41:49.685Z,99682.47
2023-03-08T10:44:33.163Z,99694.16
2023-03-08T10:47:04.287Z,99712.94
2023-03-08T10:49:31.085Z,99715.56
2023-03-08T10:52:00.235Z,99731.25
2023-03-08T10:54:28.830Z,99730.78
2023-03-08T10:56:59.094Z,99735.19
2023-03-08T10:59:34.402Z,99733.09
2023-03-08T11:02:02.822Z,99740.13
2023-03-08T11:04:30.969Z,99741.31
2023-03-08T11:06:59.032Z,99748.59
2023-03-08T11:09:26.729Z,99743.09
2023-03-08T11:11:54.613Z,99743.69
2023-03-08T11:14:21.557Z,99749.06
2023-03-08T11:17:15.937Z,99748.53
2023-03-08T11:19:49.299Z,99751.91
2023-03-08T11:22:19.763Z,99754.81
2023-03-08T11:25:15.283Z,99747.34
2023-03-08T11:27:45.289Z,99747.34
2023-03-08T11:30:39.929Z,99752.59
2023-03-08T11:33:31.842Z,99765.75
2023-03-08T11:36:21.152Z,99761.16
2023-03-08T11:38:57.048Z,99759.56
2023-03-08T11:41:36.617Z,99758.97
2023-03-08T11:44:43.696Z,99758.88
2023-03-08T11:47:30.376Z,99757.16
2023-03-08T11:50:23.129Z,99755.72
2023-03-08T11:53:10.871Z,99758.13
2023-03-08T11:55:52.623Z,99754.84
2023-03-08T11:58:24.462Z,99748.72
2023-03-08T12:00:58.846Z,99744.19
2023-03-08T12:03:43.422Z,99747.41
2023-03-08T12:06:40.301Z,99740.50
2023-03-08T12:09:20.072Z,99745.16
2023-03-08T12:11:53.799Z,99748.28
2023-03-08T12:14:30.192Z,99745.31
2023-03-08T12:17:11.260Z,99738.81
2023-03-08T12:19:50.741Z,99740.19
2023-03-08T12:22:33.716Z,99733.09
2023-03-08T12:25:24.987Z,99734.19
2023-03-08T12:28:02.071Z,99738.94
2023-03-08T12:31:01.290Z,99743.72
2023-03-08T12:33:32.375Z,99739.97
2023-03-08T12:36:04.628Z,99734.69
2023-03-08T12:38:45.769Z,99736.38
2023-03-08T12:41:24.049Z,99733.91
2023-03-08T12:44:27.860Z,99733.28
2023-03-08T12:47:03.226Z,99731.91
2023-03-08T12:49:33.153Z,99737.81
2023-03-08T12:52:04.132Z,99739.06
2023-03-08T12:54:34.557Z,99727.78
2023-03-08T12:57:14.380Z,99732.50
2023-03-08T12:59:41.378Z,99735.97
2023-03-08T13:02:30.503Z,99741.34
2023-03-08T13:05:19.289Z,99729.06
2023-03-08T13:08:12.520Z,99730.16
2023-03-08T13:10:53.569Z,99724.66
2023-03-08T13:13:38.813Z,99726.19
2023-03-08T13:16:15.474Z,99728.81
2023-03-08T13:18:45.762Z,99720.81
2023-03-08T13:21:15.538Z,99726.38
2023-03-08T13:23:49.882Z,99726.75
2023-03-08T13:26:47.586Z,99728.59
2023-03-08T13:29:17.918Z,99720.72
2023-03-08T13:31:45.933Z,99712.56
2023-03-08T13:34:31.478Z,99706.84
2023-03-08T13:36:59.203Z,99700.00
2023-03-08T13:39:30.348Z,99695.91
2023-03-08T13:42:11.961Z,99698.59
2023-03-08T13:44:38.901Z,99705.59
2023-03-08T13:47:19.788Z,99703.38
2023-03-08T13:49:47.032Z,99713.91
2023-03-08T13:52:18.594Z,99721.34
2023-03-08T13:54:53.578Z,99725.94
2023-03-08T13:57:30.457Z,99722.41
2023-03-08T14:00:01.048Z,99723.19
2023-03-08T14:02:34.596Z,99717.63
2023-03-08T14:05:01.359Z,99720.41
2023-03-08T14:07:32.044Z,99718.50
2023-03-08T14:09:59.172Z,99743.84
2023-03-08T14:12:30.870Z,99722.56
2023-03-08T14:15:02.900Z,99722.16
2023-03-08T14:17:32.341Z,99712.78
2023-03-08T14:20:21.581Z,99715.75
2023-03-08T14:22:53.021Z,99721.69
2023-03-08T14:25:29.989Z,99712.84
2023-03-08T14:27:57.761Z,99711.94
2023-03-08T14:30:26.809Z,99703.38
2023-03-08T14:33:15.760Z,99688.34
2023-03-08T14:35:51.932Z,99693.78
2023-03-08T14:38:26.907Z,99685.16
2023-03-08T14:40:54.871Z,99691.22
2023-03-08T14:43:24.822Z,99685.94
2023-03-08T14:45:57.427Z,99690.69
2023-03-08T14:48:31.813Z,99686.03
2023-03-08T14:51:02.850Z,99702.00
2023-03-08T14:53:38.730Z,99696.66
2023-03-08T14:56:17.002Z,99707.69
2023-03-08T14:58:54.527Z,99711.78
2023-03-08T15:05:30.557Z,99710.06
2023-03-08T15:07:59.855Z,99718.50
2023-03-08T15:10:33.454Z,99708.16
2023-03-08T15:13:00.832Z,99713.41
2023-03-08T15:15:27.689Z,99719.31
2023-03-08T15:17:54.450Z,99715.59
2023-03-08T15:20:22.296Z,99715.44
2023-03-08T15:22:53.763Z,99712.22
2023-03-08T15:25:39.245Z,99702.47
2023-03-08T15:28:06.161Z,99708.06
2023-03-08T15:30:33.450Z,99720.94
2023-03-08T15:33:00.545Z,99733.31
2023-03-08T15:35:27.641Z,99726.59
2023-03-08T15:37:54.568Z,99727.56
2023-03-08T15:40:26.356Z,99731.19
2023-03-08T15:42:53.425Z,99724.22
2023-03-08T15:45:20.687Z,99724.94
2023-03-08T15:48:02.743Z,99722.34
2023-03-08T15:50:32.278Z,99724.59
2023-03-08T15:52:59.900Z,99732.75
2023-03-08T15:55:30.978Z,99742.91
2023-03-08T15:57:58.836Z,99730.22
2023-03-08T16:00:26.505Z,99743.78
2023-03-08T16:02:56.111Z,99747.13
2023-03-08T16:05:25.176Z,99755.00
2023-03-08T16:08:02.517Z,99764.69
2023-03-08T16:10:33.257Z,99767.28
2023-03-08T16:13:00.252Z,99762.34
2023-03-08T16:15:27.236Z,99775.56
2023-03-08T16:17:54.179Z,99765.97
2023-03-08T16:20:23.233Z,99767.78
2023-03-08T16:22:50.696Z,99774.41
2023-03-08T16:25:17.873Z,99781.50
2023-03-08T16:27:44.683Z,99776.66
2023-03-08T16:30:13.258Z,99778.53
2023-03-08T16:32:40.106Z,99777.97
2023-03-08T16:35:07.120Z,99782.03
2023-03-08T16:37:35.046Z,99786.16
2023-03-08T16:40:05.161Z,99781.13
2023-03-08T16:42:32.080Z,99786.06
2023-03-08T16:44:59.129Z,99793.47
2023-03-08T16:47:26.841Z,99790.31
2023-03-08T16:49:53.752Z,99790.50
2023-03-08T16:52:20.824Z,99800.72
2023-03-08T16:54:49.134Z,99788.75
2023-03-08T16:57:19.807Z,99799.09
2023-03-08T16:59:47.488Z,99797.38
2023-03-08T17:02:17.693Z,99792.31
2023-03-08T17:04:45.301Z,99804.34
2023-03-08T17:07:12.322Z,99804.09
2023-03-08T17:09:39.645Z,99801.06
2023-03-08T17:12:08.116Z,99803.09
2023-03-08T17:14:37.393Z,99805.41
2023-03-08T17:17:04.693Z,99807.50
2023-03-08T17:19:31.509Z,99802.75
2023-03-08T17:21:58.483Z,99805.72
2023-03-08T17:24:28.217Z,99809.50
2023-03-08T17:26:55.390Z,99817.81
2023-03-08T17:29:22.405Z,99815.38
2023-03-08T17:31:49.695Z,99804.97
2023-03-08T17:34:17.428Z,99805.97
2023-03-08T17:36:46.755Z,99816.78
2023-03-08T17:39:14.334Z,99805.69
2023-03-08T17:41:42.874Z,99817.91
2023-03-08T17:44:09.585Z,99811.81
2023-03-08T17:46:36.439Z,99813.91
2023-03-08T17:49:03.171Z,99804.31
2023-03-08T17:51:31.531Z,99812.53
2023-03-08T17:53:59.816Z,99804.88
2023-03-08T17:56:30.097Z,99799.75
2023-03-08T17:58:58.533Z,99801.34
2023-03-08T18:01:28.075Z,99800.78
2023-03-08T18:03:55.621Z,99797.44
2023-03-08T18:06:29.561Z,99798.75
2023-03-08T18:08:58.033Z,99799.13
2023-03-08T18:11:25.459Z,99796.34
2023-03-08T18:13:52.829Z,99800.88
2023-03-08T18:16:21.171Z,99795.81
2023-03-08T18:18:49.857Z,99791.66
2023-03-08T18:21:21.107Z,99796.31
2023-03-08T18:23:48.592Z,99794.50
2023-03-08T18:26:17.005Z,99792.63
2023-03-08T18:28:43.684Z,99787.44
2023-03-08T18:31:14.673Z,99792.19
2023-03-08T18:33:42.542Z,99792.91
2023-03-08T18:36:09.481Z,99790.47
2023-03-08T18:38:36.684Z,99789.66
2023-03-08T18:41:23.612Z,99788.88
2023-03-08T18:43:51.205Z,99789.72
2023-03-08T18:46:18.411Z,99788.88
2023-03-08T18:48:50.806Z,99792.66
2023-03-08T18:51:18.045Z,99787.31
2023-03-08T18:53:45.031Z,99776.94
2023-03-08T18:56:12.518Z,99785.06
2023-03-08T18:58:39.368Z,99789.78
2023-03-08T19:01:12.379Z,99780.41
2023-03-08T19:03:40.095Z,99782.31
2023-03-08T19:06:07.271Z,99778.00
2023-03-08T19:08:34.112Z,99774.41
2023-03-08T19:11:13.734Z,99772.19
2023-03-08T19:13:41.649Z,99766.66
2023-03-08T19:16:22.370Z,99762.19
2023-03-08T19:18:50.595Z,99760.59
2023-03-08T19:21:23.440Z,99760.84
2023-03-08T19:23:50.457Z,99761.28
2023-03-08T19:26:38.929Z,99755.28
2023-03-08T19:29:07.307Z,99754.59
2023-03-08T19:31:36.599Z,99756.41
2023-03-08T19:34:05.079Z,99760.34
2023-03-08T19:36:33.575Z,99762.53
2023-03-08T19:39:00.451Z,99759.53
2023-03-08T19:41:27.441Z,99759.41
2023-03-08T19:43:54.256Z,99754.47
2023-03-08T19:46:21.192Z,99760.63
2023-03-08T19:48:48.312Z,99747.78
2023-03-08T19:51:17.343Z,99736.59
2023-03-08T19:53:44.606Z,99737.91
2023-03-08T19:56:19.565Z,99740.72
2023-03-08T19:58:47.433Z,99734.31
2023-03-08T20:01:17.140Z,99730.06
2023-03-08T20:03:46.113Z,99729.13
2023-03-08T20:06:20.895Z,99726.59
2023-03-08T20:08:47.571Z,99735.78
2023-03-08T20:11:14.441Z,99740.47
2023-03-08T20:13:41.286Z,99743.66
2023-03-08T20:16:07.962Z,99756.38
2023-03-08T20:18:34.672Z,99750.53
2023-03-08T20:21:03.120Z,99755.84
2023-03-08T20:23:31.784Z,99744.75
2023-03-08T20:26:01.359Z,99754.72
2023-03-08T20:28:28.515Z,99760.13
2023-03-08T20:30:55.350Z,99758.41
2023-03-08T20:33:22.378Z,99754.19
2023-03-08T20:36:00.434Z,99746.00
2023-03-08T20:38:27.586Z,99748.13
2023-03-08T20:41:01.706Z,99743.84
2023-03-08T20:43:30.992Z,99744.19
2023-03-08T20:46:01.575Z,99739.53
2023-03-08T20:48:28.334Z,99734.44
2023-03-08T20:51:00.002Z,99744.94
2023-03-08T20:53:28.579Z,99749.94
2023-03-08T20:55:55.520Z,99743.69
2023-03-08T20:58:22.345Z,99741.06
2023-03-08T21:00:49.602Z,99743.69
2023-03-08T21:03:17.582Z,99748.88
2023-03-08T21:05:44.978Z,99750.75
2023-03-08T21:08:11.692Z,99754.53
2023-03-08T21:10:39.916Z,99750.78
2023-03-08T21:13:06.907Z,99743.88
2023-03-08T21:15:35.252Z,99742.34
2023-03-08T21:18:02.035Z,99749.25
2023-03-08T21:20:28.735Z,99746.75
2023-03-08T21:22:56.450Z,99750.75
2023-03-08T21:25:27.670Z,99744.50
2023-03-08T21:27:54.434Z,99746.31
2023-03-08T21:30:21.829Z,99742.25
2023-03-08T21:32:48.632Z,99743.97
2023-03-08T21:35:15.685Z,99741.53
2023-03-08T21:37:42.582Z,99735.84
2023-03-08T21:40:10.210Z,99736.91
2023-03-08T21:42:37.166Z,99731.66
2023-03-08T21:45:04.142Z,99736.41
2023-03-08T21:47:30.884Z,99731.94
2023-03-08T21:49:57.634Z,99722.28
2023-03-08T21:52:24.429Z,99734.66
2023-03-08T21:54:51.312Z,99734.75
2023-03-08T21:57:18.038Z,99730.00
2023-03-08T21:59:44.772Z,99717.81
2023-03-08T22:02:11.561Z,99718.38
2023-03-08T22:04:39.736Z,99713.06
2023-03-08T22:07:06.511Z,99720.50
2023-03-08T22:09:33.557Z,99711.50
2023-03-08T22:12:00.394Z,99709.19
2023-03-08T22:14:28.266Z,99710.72
2023-03-08T22:16:56.508Z,99704.16
2023-03-08T22:19:23.303Z,99707.31
2023-03-08T22:21:50.057Z,99702.13
2023-03-08T22:24:16.750Z,99703.28
2023-03-08T22:26:43.623Z,99705.28
2023-03-08T22:29:10.417Z,99697.16
2023-03-08T22:31:37.242Z,99697.66
2023-03-08T22:34:04.210Z,99692.84
2023-03-08T22:36:31.013Z,99687.66
2023-03-08T22:38:57.728Z,99689.41
2023-03-08T22:41:26.647Z,99691.91
2023-03-08T22:43:53.695Z,99691.63
2023-03-08T22:46:26.579Z,99696.06
2023-03-08T22:48:57.604Z,99696.38
2023-03-08T22:51:25.625Z,99697.75
2023-03-08T22:53:52.355Z,99703.88
2023-03-08T22:56:25.404Z,99697.59
2023-03-08T22:58:52.811Z,99701.41
2023-03-08T23:01:21.922Z,99702.34
2023-03-08T23:03:49.787Z,99698.53
2023-03-08T23:06:18.031Z,99695.72
2023-03-08T23:08:45.409Z,99692.28
2023-03-08T23:11:12.597Z,99699.34
2023-03-08T23:13:39.746Z,99697.59
2023-03-08T23:16:07.519Z,99691.78
2023-03-08T23:18:35.267Z,99694.28
2023-03-08T23:21:07.155Z,99703.09
2023-03-08T23:23:34.855Z,99690.34
2023-03-08T23:26:04.324Z,99694.34
2023-03-08T23:28:35.614Z,99699.47
2023-03-08T23:31:08.878Z,99694.88
2023-03-08T23:33:35.644Z,99697.44
2023-03-08T23:36:02.624Z,99696.50
2023-03-08T23:38:29.392Z,99687.66
2023-03-08T23:40:56.228Z,99690.34
2023-03-08T23:43:22.958Z,99694.78
2023-03-08T23:45:49.743Z,99697.78
2023-03-08T23:48:16.545Z,99691.69
2023-03-08T23:50:43.416Z,99689.94
2023-03-08T23:53:10.180Z,99681.66
2023-03-08T23:55:41.134Z,99685.34
2023-03-08T23:58:08.471Z,99693.19
